sensor_id;sensor_type;location;lat;lon;timestamp;P1;durP1;ratioP1;P2;durP2;ratioP2
65825;SDS011;52586;-43.152;172.732;2023-04-16T00:02:30;1.23;;;0.90;;
65825;SDS011;52586;-43.152;172.732;2023-04-16T00:05:00;3.28;;;1.58;;
65825;SDS011;52586;-43.152;172.732;2023-04-16T00:07:31;3.17;;;1.65;;
65825;SDS011;52586;-43.152;172.732;2023-04-16T00:10:02;2.00;;;1.27;;
65825;SDS011;52586;-43.152;172.732;2023-04-16T00:12:35;2.05;;;1.30;;
65825;SDS011;52586;-43.152;172.732;2023-04-16T00:15:06;2.65;;;1.38;;
65825;SDS011;52586;-43.152;172.732;2023-04-16T00:17:37;2.55;;;1.55;;
65825;SDS011;52586;-43.152;172.732;2023-04-16T00:20:08;1.67;;;1.10;;
65825;SDS011;52586;-43.152;172.732;2023-04-16T00:22:39;2.80;;;1.25;;
65825;SDS011;52586;-43.152;172.732;2023-04-16T00:25:09;2.30;;;1.00;;
65825;SDS011;52586;-43.152;172.732;2023-04-16T00:27:42;2.17;;;1.13;;
65825;SDS011;52586;-43.152;172.732;2023-04-16T00:30:13;2.15;;;1.40;;
65825;SDS011;52586;-43.152;172.732;2023-04-16T00:32:44;1.60;;;1.17;;
65825;SDS011;52586;-43.152;172.732;2023-04-16T00:35:14;3.00;;;1.20;;
65825;SDS011;52586;-43.152;172.732;2023-04-16T00:37:45;2.40;;;1.40;;
65825;SDS011;52586;-43.152;172.732;2023-04-16T00:40:16;4.50;;;1.52;;
65825;SDS011;52586;-43.152;172.732;2023-04-16T00:42:48;2.22;;;1.33;;
65825;SDS011;52586;-43.152;172.732;2023-04-16T00:45:19;1.98;;;1.23;;
65825;SDS011;52586;-43.152;172.732;2023-04-16T00:47:50;2.83;;;1.35;;
65825;SDS011;52586;-43.152;172.732;2023-04-16T00:50:20;2.58;;;1.10;;
65825;SDS011;52586;-43.152;172.732;2023-04-16T00:52:51;2.55;;;1.25;;
65825;SDS011;52586;-43.152;172.732;2023-04-16T00:55:23;2.63;;;1.20;;
65825;SDS011;52586;-43.152;172.732;2023-04-16T00:57:56;2.67;;;1.30;;
65825;SDS011;52586;-43.152;172.732;2023-04-16T01:00:26;1.90;;;1.00;;
65825;SDS011;52586;-43.152;172.732;2023-04-16T01:02:57;2.15;;;1.30;;
65825;SDS011;52586;-43.152;172.732;2023-04-16T01:05:28;3.05;;;1.30;;
65825;SDS011;52586;-43.152;172.732;2023-04-16T01:07:59;2.42;;;1.27;;
65825;SDS011;52586;-43.152;172.732;2023-04-16T01:10:30;1.55;;;1.10;;
65825;SDS011;52586;-43.152;172.732;2023-04-16T01:13:02;2.17;;;1.10;;
65825;SDS011;52586;-43.152;172.732;2023-04-16T01:15:33;2.38;;;1.20;;
65825;SDS011;52586;-43.152;172.732;2023-04-16T01:18:12;1.25;;;0.95;;
65825;SDS011;52586;-43.152;172.732;2023-04-16T01:20:45;2.17;;;1.10;;
65825;SDS011;52586;-43.152;172.732;2023-04-16T01:23:16;1.85;;;1.10;;
65825;SDS011;52586;-43.152;172.732;2023-04-16T01:25:47;3.10;;;1.00;;
65825;SDS011;52586;-43.152;172.732;2023-04-16T01:28:18;1.88;;;1.05;;
65825;SDS011;52586;-43.152;172.732;2023-04-16T01:30:48;1.27;;;0.88;;
65825;SDS011;52586;-43.152;172.732;2023-04-16T01:33:19;2.42;;;1.40;;
65825;SDS011;52586;-43.152;172.732;2023-04-16T01:35:52;2.67;;;1.10;;
65825;SDS011;52586;-43.152;172.732;2023-04-16T01:38:22;2.70;;;1.27;;
65825;SDS011;52586;-43.152;172.732;2023-04-16T01:40:55;3.58;;;1.30;;
65825;SDS011;52586;-43.152;172.732;2023-04-16T01:43:27;2.75;;;1.42;;
65825;SDS011;52586;-43.152;172.732;2023-04-16T01:48:46;3.72;;;1.33;;
65825;SDS011;52586;-43.152;172.732;2023-04-16T01:51:21;2.17;;;1.02;;
65825;SDS011;52586;-43.152;172.732;2023-04-16T01:53:52;2.92;;;1.17;;
65825;SDS011;52586;-43.152;172.732;2023-04-16T01:56:23;2.63;;;1.15;;
65825;SDS011;52586;-43.152;172.732;2023-04-16T01:58:54;2.03;;;1.02;;
65825;SDS011;52586;-43.152;172.732;2023-04-16T02:01:24;2.13;;;1.00;;
65825;SDS011;52586;-43.152;172.732;2023-04-16T02:03:55;2.33;;;1.40;;
65825;SDS011;52586;-43.152;172.732;2023-04-16T02:06:28;2.40;;;1.10;;
65825;SDS011;52586;-43.152;172.732;2023-04-16T02:08:59;2.15;;;1.10;;
65825;SDS011;52586;-43.152;172.732;2023-04-16T02:11:32;2.75;;;1.13;;
65825;SDS011;52586;-43.152;172.732;2023-04-16T02:14:03;2.30;;;1.17;;
65825;SDS011;52586;-43.152;172.732;2023-04-16T02:16:34;2.95;;;1.45;;
65825;SDS011;52586;-43.152;172.732;2023-04-16T02:19:05;2.28;;;1.17;;
65825;SDS011;52586;-43.152;172.732;2023-04-16T02:21:37;2.13;;;1.25;;
65825;SDS011;52586;-43.152;172.732;2023-04-16T02:24:08;2.92;;;1.10;;
65825;SDS011;52586;-43.152;172.732;2023-04-16T02:26:39;3.10;;;1.25;;
65825;SDS011;52586;-43.152;172.732;2023-04-16T02:29:10;1.40;;;0.90;;
65825;SDS011;52586;-43.152;172.732;2023-04-16T02:31:41;2.83;;;1.20;;
65825;SDS011;52586;-43.152;172.732;2023-04-16T02:34:12;2.10;;;1.20;;
65825;SDS011;52586;-43.152;172.732;2023-04-16T02:36:44;2.10;;;1.30;;
65825;SDS011;52586;-43.152;172.732;2023-04-16T02:39:15;1.95;;;1.25;;
65825;SDS011;52586;-43.152;172.732;2023-04-16T02:41:45;2.72;;;1.35;;
65825;SDS011;52586;-43.152;172.732;2023-04-16T02:44:16;2.83;;;1.00;;
65825;SDS011;52586;-43.152;172.732;2023-04-16T02:46:47;2.00;;;1.15;;
65825;SDS011;52586;-43.152;172.732;2023-04-16T02:49:18;1.48;;;1.27;;
65825;SDS011;52586;-43.152;172.732;2023-04-16T02:51:50;2.45;;;1.00;;
65825;SDS011;52586;-43.152;172.732;2023-04-16T02:54:21;1.80;;;0.95;;
65825;SDS011;52586;-43.152;172.732;2023-04-16T02:56:51;2.10;;;1.10;;
65825;SDS011;52586;-43.152;172.732;2023-04-16T02:59:22;2.13;;;1.08;;
65825;SDS011;52586;-43.152;172.732;2023-04-16T03:01:53;2.90;;;1.00;;
65825;SDS011;52586;-43.152;172.732;2023-04-16T03:04:24;2.67;;;1.20;;
65825;SDS011;52586;-43.152;172.732;2023-04-16T03:06:56;3.92;;;1.20;;
65825;SDS011;52586;-43.152;172.732;2023-04-16T03:09:27;1.95;;;1.00;;
65825;SDS011;52586;-43.152;172.732;2023-04-16T03:11:57;3.78;;;1.20;;
65825;SDS011;52586;-43.152;172.732;2023-04-16T03:14:29;2.13;;;1.00;;
65825;SDS011;52586;-43.152;172.732;2023-04-16T03:16:59;3.03;;;1.30;;
65825;SDS011;52586;-43.152;172.732;2023-04-16T03:19:30;1.75;;;1.20;;
65825;SDS011;52586;-43.152;172.732;2023-04-16T03:22:03;1.92;;;1.25;;
65825;SDS011;52586;-43.152;172.732;2023-04-16T03:24:33;3.47;;;1.10;;
65825;SDS011;52586;-43.152;172.732;2023-04-16T03:27:04;2.67;;;1.20;;
65825;SDS011;52586;-43.152;172.732;2023-04-16T03:29:35;2.42;;;1.08;;
65825;SDS011;52586;-43.152;172.732;2023-04-16T03:32:06;1.85;;;1.27;;
65825;SDS011;52586;-43.152;172.732;2023-04-16T03:34:37;2.83;;;1.30;;
65825;SDS011;52586;-43.152;172.732;2023-04-16T03:37:10;2.83;;;1.30;;
65825;SDS011;52586;-43.152;172.732;2023-04-16T03:39:40;1.00;;;0.90;;
65825;SDS011;52586;-43.152;172.732;2023-04-16T03:42:11;3.58;;;1.20;;
65825;SDS011;52586;-43.152;172.732;2023-04-16T03:44:42;3.45;;;1.27;;
65825;SDS011;52586;-43.152;172.732;2023-04-16T03:47:12;2.13;;;1.20;;
65825;SDS011;52586;-43.152;172.732;2023-04-16T03:49:43;2.42;;;1.20;;
65825;SDS011;52586;-43.152;172.732;2023-04-16T03:52:15;3.33;;;1.35;;
65825;SDS011;52586;-43.152;172.732;2023-04-16T03:54:46;2.35;;;1.10;;
65825;SDS011;52586;-43.152;172.732;2023-04-16T03:57:17;3.70;;;1.20;;
65825;SDS011;52586;-43.152;172.732;2023-04-16T03:59:47;3.17;;;1.33;;
65825;SDS011;52586;-43.152;172.732;2023-04-16T04:02:18;2.72;;;1.15;;
65825;SDS011;52586;-43.152;172.732;2023-04-16T04:04:48;1.77;;;1.20;;
65825;SDS011;52586;-43.152;172.732;2023-04-16T04:07:21;3.22;;;1.30;;
65825;SDS011;52586;-43.152;172.732;2023-04-16T04:09:52;2.47;;;1.00;;
65825;SDS011;52586;-43.152;172.732;2023-04-16T04:12:22;2.25;;;1.23;;
65825;SDS011;52586;-43.152;172.732;2023-04-16T04:14:53;2.33;;;1.15;;
65825;SDS011;52586;-43.152;172.732;2023-04-16T04:17:23;2.45;;;1.20;;
65825;SDS011;52586;-43.152;172.732;2023-04-16T04:19:54;2.03;;;1.20;;
65825;SDS011;52586;-43.152;172.732;2023-04-16T04:22:27;2.22;;;1.30;;
65825;SDS011;52586;-43.152;172.732;2023-04-16T04:24:57;2.78;;;1.30;;
65825;SDS011;52586;-43.152;172.732;2023-04-16T04:27:28;3.53;;;1.40;;
65825;SDS011;52586;-43.152;172.732;2023-04-16T04:29:59;2.53;;;1.25;;
65825;SDS011;52586;-43.152;172.732;2023-04-16T04:32:31;2.88;;;1.33;;
65825;SDS011;52586;-43.152;172.732;2023-04-16T04:35:02;1.30;;;1.08;;
65825;SDS011;52586;-43.152;172.732;2023-04-16T04:37:35;3.67;;;1.30;;
65825;SDS011;52586;-43.152;172.732;2023-04-16T04:40:06;2.95;;;1.30;;
65825;SDS011;52586;-43.152;172.732;2023-04-16T04:42:37;2.03;;;0.90;;
65825;SDS011;52586;-43.152;172.732;2023-04-16T04:45:08;2.17;;;1.38;;
65825;SDS011;52586;-43.152;172.732;2023-04-16T04:47:39;2.72;;;1.30;;
65825;SDS011;52586;-43.152;172.732;2023-04-16T04:50:10;2.40;;;1.73;;
65825;SDS011;52586;-43.152;172.732;2023-04-16T04:52:42;2.45;;;1.60;;
65825;SDS011;52586;-43.152;172.732;2023-04-16T04:55:13;2.65;;;1.50;;
65825;SDS011;52586;-43.152;172.732;2023-04-16T04:57:44;2.65;;;1.83;;
65825;SDS011;52586;-43.152;172.732;2023-04-16T05:00:14;3.42;;;1.95;;
65825;SDS011;52586;-43.152;172.732;2023-04-16T05:02:45;2.95;;;2.30;;
65825;SDS011;52586;-43.152;172.732;2023-04-16T05:05:17;4.75;;;2.35;;
65825;SDS011;52586;-43.152;172.732;2023-04-16T05:07:49;4.30;;;2.00;;
65825;SDS011;52586;-43.152;172.732;2023-04-16T05:10:20;2.75;;;2.20;;
65825;SDS011;52586;-43.152;172.732;2023-04-16T05:12:50;4.53;;;2.10;;
65825;SDS011;52586;-43.152;172.732;2023-04-16T05:15:21;5.78;;;2.47;;
65825;SDS011;52586;-43.152;172.732;2023-04-16T05:17:52;4.10;;;2.35;;
65825;SDS011;52586;-43.152;172.732;2023-04-16T05:20:23;2.92;;;2.00;;
65825;SDS011;52586;-43.152;172.732;2023-04-16T05:22:55;4.90;;;2.53;;
65825;SDS011;52586;-43.152;172.732;2023-04-16T05:25:26;5.85;;;2.65;;
65825;SDS011;52586;-43.152;172.732;2023-04-16T05:27:57;5.80;;;2.65;;
65825;SDS011;52586;-43.152;172.732;2023-04-16T05:30:27;6.10;;;3.05;;
65825;SDS011;52586;-43.152;172.732;2023-04-16T05:32:58;5.10;;;2.95;;
65825;SDS011;52586;-43.152;172.732;2023-04-16T05:35:28;3.90;;;2.35;;
65825;SDS011;52586;-43.152;172.732;2023-04-16T05:38:02;4.82;;;2.92;;
65825;SDS011;52586;-43.152;172.732;2023-04-16T05:40:32;5.35;;;2.50;;
65825;SDS011;52586;-43.152;172.732;2023-04-16T05:43:03;3.45;;;2.60;;
65825;SDS011;52586;-43.152;172.732;2023-04-16T05:45:34;6.35;;;2.60;;
65825;SDS011;52586;-43.152;172.732;2023-04-16T05:48:06;6.22;;;2.70;;
65825;SDS011;52586;-43.152;172.732;2023-04-16T05:50:37;4.28;;;2.53;;
65825;SDS011;52586;-43.152;172.732;2023-04-16T05:53:10;5.88;;;2.85;;
65825;SDS011;52586;-43.152;172.732;2023-04-16T05:55:41;4.80;;;2.55;;
65825;SDS011;52586;-43.152;172.732;2023-04-16T05:58:12;4.97;;;2.63;;
65825;SDS011;52586;-43.152;172.732;2023-04-16T06:00:42;6.18;;;3.20;;
65825;SDS011;52586;-43.152;172.732;2023-04-16T06:03:13;5.85;;;2.42;;
65825;SDS011;52586;-43.152;172.732;2023-04-16T06:05:44;5.80;;;3.20;;
65825;SDS011;52586;-43.152;172.732;2023-04-16T06:08:16;5.25;;;3.00;;
65825;SDS011;52586;-43.152;172.732;2023-04-16T06:10:47;8.15;;;3.63;;
65825;SDS011;52586;-43.152;172.732;2023-04-16T06:13:18;5.13;;;3.13;;
65825;SDS011;52586;-43.152;172.732;2023-04-16T06:15:49;4.53;;;3.20;;
65825;SDS011;52586;-43.152;172.732;2023-04-16T06:18:19;4.40;;;2.95;;
65825;SDS011;52586;-43.152;172.732;2023-04-16T06:20:50;6.65;;;3.30;;
65825;SDS011;52586;-43.152;172.732;2023-04-16T06:23:22;7.00;;;3.22;;
65825;SDS011;52586;-43.152;172.732;2023-04-16T06:25:53;4.97;;;3.00;;
65825;SDS011;52586;-43.152;172.732;2023-04-16T06:28:24;5.80;;;3.22;;
65825;SDS011;52586;-43.152;172.732;2023-04-16T06:30:54;6.43;;;3.50;;
65825;SDS011;52586;-43.152;172.732;2023-04-16T06:33:25;7.75;;;3.63;;
65825;SDS011;52586;-43.152;172.732;2023-04-16T06:35:56;4.35;;;2.92;;
65825;SDS011;52586;-43.152;172.732;2023-04-16T06:38:28;4.78;;;3.15;;
65825;SDS011;52586;-43.152;172.732;2023-04-16T06:40:59;5.88;;;3.35;;
65825;SDS011;52586;-43.152;172.732;2023-04-16T06:43:29;4.35;;;2.85;;
65825;SDS011;52586;-43.152;172.732;2023-04-16T06:46:00;6.03;;;3.28;;
65825;SDS011;52586;-43.152;172.732;2023-04-16T06:48:31;5.63;;;2.80;;
65825;SDS011;52586;-43.152;172.732;2023-04-16T06:51:02;4.28;;;3.10;;
65825;SDS011;52586;-43.152;172.732;2023-04-16T06:53:35;4.65;;;3.22;;
65825;SDS011;52586;-43.152;172.732;2023-04-16T06:56:06;4.45;;;3.10;;
65825;SDS011;52586;-43.152;172.732;2023-04-16T06:58:37;5.10;;;3.00;;
65825;SDS011;52586;-43.152;172.732;2023-04-16T07:01:07;4.65;;;2.90;;
65825;SDS011;52586;-43.152;172.732;2023-04-16T07:03:38;4.97;;;2.95;;
65825;SDS011;52586;-43.152;172.732;2023-04-16T07:06:09;6.38;;;3.42;;
65825;SDS011;52586;-43.152;172.732;2023-04-16T07:08:41;5.28;;;3.15;;
65825;SDS011;52586;-43.152;172.732;2023-04-16T07:11:12;5.93;;;3.08;;
65825;SDS011;52586;-43.152;172.732;2023-04-16T07:13:43;4.68;;;3.20;;
65825;SDS011;52586;-43.152;172.732;2023-04-16T07:16:13;5.32;;;3.10;;
65825;SDS011;52586;-43.152;172.732;2023-04-16T07:18:44;4.78;;;2.90;;
65825;SDS011;52586;-43.152;172.732;2023-04-16T07:21:14;5.85;;;3.60;;
65825;SDS011;52586;-43.152;172.732;2023-04-16T07:23:47;3.85;;;2.70;;
65825;SDS011;52586;-43.152;172.732;2023-04-16T07:26:17;4.25;;;2.90;;
65825;SDS011;52586;-43.152;172.732;2023-04-16T07:28:48;4.28;;;3.10;;
65825;SDS011;52586;-43.152;172.732;2023-04-16T07:31:19;4.43;;;2.85;;
65825;SDS011;52586;-43.152;172.732;2023-04-16T07:33:49;4.18;;;3.22;;
65825;SDS011;52586;-43.152;172.732;2023-04-16T07:36:20;4.95;;;3.30;;
65825;SDS011;52586;-43.152;172.732;2023-04-16T07:38:54;4.32;;;3.28;;
65825;SDS011;52586;-43.152;172.732;2023-04-16T07:41:25;5.20;;;3.22;;
65825;SDS011;52586;-43.152;172.732;2023-04-16T07:43:56;4.50;;;3.35;;
65825;SDS011;52586;-43.152;172.732;2023-04-16T07:46:27;3.83;;;2.70;;
65825;SDS011;52586;-43.152;172.732;2023-04-16T07:48:58;4.75;;;3.10;;
65825;SDS011;52586;-43.152;172.732;2023-04-16T07:51:28;3.75;;;2.95;;
65825;SDS011;52586;-43.152;172.732;2023-04-16T07:54:01;4.57;;;3.30;;
65825;SDS011;52586;-43.152;172.732;2023-04-16T07:56:31;3.95;;;3.00;;
65825;SDS011;52586;-43.152;172.732;2023-04-16T07:59:02;3.63;;;2.75;;
65825;SDS011;52586;-43.152;172.732;2023-04-16T08:01:33;4.95;;;3.20;;
65825;SDS011;52586;-43.152;172.732;2023-04-16T08:04:03;4.07;;;2.83;;
65825;SDS011;52586;-43.152;172.732;2023-04-16T08:06:34;5.85;;;3.40;;
65825;SDS011;52586;-43.152;172.732;2023-04-16T08:09:06;4.80;;;2.80;;
65825;SDS011;52586;-43.152;172.732;2023-04-16T08:11:37;5.45;;;2.88;;
65825;SDS011;52586;-43.152;172.732;2023-04-16T08:14:08;4.38;;;3.00;;
65825;SDS011;52586;-43.152;172.732;2023-04-16T08:16:38;3.53;;;2.92;;
65825;SDS011;52586;-43.152;172.732;2023-04-16T08:19:09;3.80;;;3.05;;
65825;SDS011;52586;-43.152;172.732;2023-04-16T08:21:39;5.25;;;2.97;;
65825;SDS011;52586;-43.152;172.732;2023-04-16T08:24:12;3.65;;;2.85;;
65825;SDS011;52586;-43.152;172.732;2023-04-16T08:26:43;4.72;;;3.05;;
65825;SDS011;52586;-43.152;172.732;2023-04-16T08:29:13;3.67;;;2.90;;
65825;SDS011;52586;-43.152;172.732;2023-04-16T08:31:44;3.38;;;2.70;;
65825;SDS011;52586;-43.152;172.732;2023-04-16T08:34:15;5.50;;;3.15;;
65825;SDS011;52586;-43.152;172.732;2023-04-16T08:36:46;3.38;;;2.75;;
65825;SDS011;52586;-43.152;172.732;2023-04-16T08:39:18;4.05;;;2.75;;
65825;SDS011;52586;-43.152;172.732;2023-04-16T08:41:49;5.10;;;2.97;;
65825;SDS011;52586;-43.152;172.732;2023-04-16T08:44:24;5.30;;;2.90;;
65825;SDS011;52586;-43.152;172.732;2023-04-16T08:46:55;4.70;;;3.08;;
65825;SDS011;52586;-43.152;172.732;2023-04-16T08:49:27;4.43;;;3.03;;
65825;SDS011;52586;-43.152;172.732;2023-04-16T08:52:01;4.57;;;3.03;;
65825;SDS011;52586;-43.152;172.732;2023-04-16T08:54:41;4.95;;;2.83;;
65825;SDS011;52586;-43.152;172.732;2023-04-16T08:57:16;3.95;;;2.85;;
65825;SDS011;52586;-43.152;172.732;2023-04-16T08:59:50;4.00;;;3.05;;
65825;SDS011;52586;-43.152;172.732;2023-04-16T09:02:22;3.58;;;2.42;;
65825;SDS011;52586;-43.152;172.732;2023-04-16T09:04:55;2.83;;;2.35;;
65825;SDS011;52586;-43.152;172.732;2023-04-16T09:07:27;4.40;;;2.97;;
65825;SDS011;52586;-43.152;172.732;2023-04-16T09:10:01;4.40;;;2.63;;
65825;SDS011;52586;-43.152;172.732;2023-04-16T09:12:33;4.75;;;2.90;;
65825;SDS011;52586;-43.152;172.732;2023-04-16T09:15:05;4.20;;;2.70;;
65825;SDS011;52586;-43.152;172.732;2023-04-16T09:17:37;4.55;;;2.90;;
65825;SDS011;52586;-43.152;172.732;2023-04-16T09:20:08;5.00;;;2.28;;
65825;SDS011;52586;-43.152;172.732;2023-04-16T09:22:39;2.97;;;2.65;;
65825;SDS011;52586;-43.152;172.732;2023-04-16T09:25:13;4.10;;;2.60;;
65825;SDS011;52586;-43.152;172.732;2023-04-16T09:27:44;3.30;;;2.60;;
65825;SDS011;52586;-43.152;172.732;2023-04-16T09:30:20;3.22;;;2.55;;
65825;SDS011;52586;-43.152;172.732;2023-04-16T09:32:51;3.67;;;2.72;;
65825;SDS011;52586;-43.152;172.732;2023-04-16T09:35:44;4.32;;;2.53;;
65825;SDS011;52586;-43.152;172.732;2023-04-16T09:38:16;3.78;;;2.47;;
65825;SDS011;52586;-43.152;172.732;2023-04-16T09:40:48;3.70;;;2.45;;
65825;SDS011;52586;-43.152;172.732;2023-04-16T09:43:35;3.28;;;2.15;;
65825;SDS011;52586;-43.152;172.732;2023-04-16T09:46:06;3.42;;;2.45;;
65825;SDS011;52586;-43.152;172.732;2023-04-16T09:48:40;3.55;;;2.70;;
65825;SDS011;52586;-43.152;172.732;2023-04-16T09:51:13;4.47;;;2.60;;
65825;SDS011;52586;-43.152;172.732;2023-04-16T09:53:43;3.47;;;2.60;;
65825;SDS011;52586;-43.152;172.732;2023-04-16T09:56:16;4.18;;;2.53;;
65825;SDS011;52586;-43.152;172.732;2023-04-16T09:58:54;5.28;;;2.40;;
65825;SDS011;52586;-43.152;172.732;2023-04-16T10:01:27;4.35;;;2.65;;
65825;SDS011;52586;-43.152;172.732;2023-04-16T10:04:00;3.70;;;2.47;;
65825;SDS011;52586;-43.152;172.732;2023-04-16T10:06:34;4.05;;;2.50;;
65825;SDS011;52586;-43.152;172.732;2023-04-16T10:09:06;3.60;;;2.22;;
65825;SDS011;52586;-43.152;172.732;2023-04-16T10:11:39;4.03;;;2.70;;
65825;SDS011;52586;-43.152;172.732;2023-04-16T10:14:11;4.70;;;2.80;;
65825;SDS011;52586;-43.152;172.732;2023-04-16T10:16:41;4.53;;;2.97;;
65825;SDS011;52586;-43.152;172.732;2023-04-16T10:19:12;5.60;;;2.42;;
65825;SDS011;52586;-43.152;172.732;2023-04-16T10:21:43;4.68;;;2.72;;
65825;SDS011;52586;-43.152;172.732;2023-04-16T10:24:14;4.38;;;2.80;;
65825;SDS011;52586;-43.152;172.732;2023-04-16T10:26:47;5.15;;;2.70;;
65825;SDS011;52586;-43.152;172.732;2023-04-16T10:29:19;6.80;;;3.20;;
65825;SDS011;52586;-43.152;172.732;2023-04-16T10:31:51;3.67;;;2.97;;
65825;SDS011;52586;-43.152;172.732;2023-04-16T10:34:23;4.18;;;2.63;;
65825;SDS011;52586;-43.152;172.732;2023-04-16T10:36:54;4.85;;;3.00;;
65825;SDS011;52586;-43.152;172.732;2023-04-16T10:39:26;4.50;;;2.80;;
65825;SDS011;52586;-43.152;172.732;2023-04-16T10:42:09;6.57;;;3.22;;
65825;SDS011;52586;-43.152;172.732;2023-04-16T10:44:40;6.57;;;3.72;;
65825;SDS011;52586;-43.152;172.732;2023-04-16T10:47:11;4.32;;;2.83;;
65825;SDS011;52586;-43.152;172.732;2023-04-16T10:49:42;4.95;;;2.85;;
65825;SDS011;52586;-43.152;172.732;2023-04-16T10:52:15;5.38;;;2.58;;
65825;SDS011;52586;-43.152;172.732;2023-04-16T10:54:47;5.22;;;2.95;;
65825;SDS011;52586;-43.152;172.732;2023-04-16T10:57:22;5.90;;;3.13;;
65825;SDS011;52586;-43.152;172.732;2023-04-16T10:59:58;5.60;;;3.00;;
65825;SDS011;52586;-43.152;172.732;2023-04-16T11:02:29;6.28;;;3.30;;
65825;SDS011;52586;-43.152;172.732;2023-04-16T11:05:00;6.70;;;3.20;;
65825;SDS011;52586;-43.152;172.732;2023-04-16T11:07:32;5.50;;;3.65;;
65825;SDS011;52586;-43.152;172.732;2023-04-16T11:10:04;4.78;;;2.75;;
65825;SDS011;52586;-43.152;172.732;2023-04-16T11:12:42;5.05;;;3.08;;
65825;SDS011;52586;-43.152;172.732;2023-04-16T11:15:15;6.22;;;3.53;;
65825;SDS011;52586;-43.152;172.732;2023-04-16T11:17:47;5.90;;;2.85;;
65825;SDS011;52586;-43.152;172.732;2023-04-16T11:20:19;4.68;;;3.08;;
65825;SDS011;52586;-43.152;172.732;2023-04-16T11:22:51;7.25;;;3.50;;
65825;SDS011;52586;-43.152;172.732;2023-04-16T11:25:23;4.63;;;3.05;;
65825;SDS011;52586;-43.152;172.732;2023-04-16T11:27:56;4.80;;;3.08;;
65825;SDS011;52586;-43.152;172.732;2023-04-16T11:30:28;6.05;;;3.17;;
65825;SDS011;52586;-43.152;172.732;2023-04-16T11:33:01;4.13;;;2.78;;
65825;SDS011;52586;-43.152;172.732;2023-04-16T11:35:32;5.57;;;2.83;;
65825;SDS011;52586;-43.152;172.732;2023-04-16T11:38:04;5.45;;;2.78;;
65825;SDS011;52586;-43.152;172.732;2023-04-16T11:40:35;3.70;;;2.67;;
65825;SDS011;52586;-43.152;172.732;2023-04-16T11:43:14;5.03;;;3.15;;
65825;SDS011;52586;-43.152;172.732;2023-04-16T11:45:54;4.30;;;2.70;;
65825;SDS011;52586;-43.152;172.732;2023-04-16T11:48:33;5.18;;;3.10;;
65825;SDS011;52586;-43.152;172.732;2023-04-16T11:51:15;4.07;;;2.63;;
65825;SDS011;52586;-43.152;172.732;2023-04-16T11:53:48;4.80;;;2.60;;
65825;SDS011;52586;-43.152;172.732;2023-04-16T11:56:26;5.30;;;3.08;;
65825;SDS011;52586;-43.152;172.732;2023-04-16T11:59:08;6.13;;;2.78;;
65825;SDS011;52586;-43.152;172.732;2023-04-16T12:01:40;4.32;;;3.03;;
65825;SDS011;52586;-43.152;172.732;2023-04-16T12:04:13;6.22;;;3.22;;
65825;SDS011;52586;-43.152;172.732;2023-04-16T12:09:39;4.82;;;2.95;;
65825;SDS011;52586;-43.152;172.732;2023-04-16T12:12:24;6.85;;;2.92;;
65825;SDS011;52586;-43.152;172.732;2023-04-16T12:14:57;4.75;;;3.08;;
65825;SDS011;52586;-43.152;172.732;2023-04-16T12:17:28;5.88;;;3.08;;
65825;SDS011;52586;-43.152;172.732;2023-04-16T12:20:00;4.60;;;3.17;;
65825;SDS011;52586;-43.152;172.732;2023-04-16T12:22:33;6.68;;;3.70;;
65825;SDS011;52586;-43.152;172.732;2023-04-16T12:25:05;6.45;;;3.58;;
65825;SDS011;52586;-43.152;172.732;2023-04-16T12:27:43;4.82;;;2.70;;
65825;SDS011;52586;-43.152;172.732;2023-04-16T12:30:17;6.22;;;3.15;;
65825;SDS011;52586;-43.152;172.732;2023-04-16T12:32:49;3.92;;;2.70;;
65825;SDS011;52586;-43.152;172.732;2023-04-16T12:35:30;5.22;;;3.15;;
65825;SDS011;52586;-43.152;172.732;2023-04-16T12:38:01;5.07;;;2.92;;
65825;SDS011;52586;-43.152;172.732;2023-04-16T12:40:35;5.78;;;3.40;;
65825;SDS011;52586;-43.152;172.732;2023-04-16T12:43:06;6.03;;;3.20;;
65825;SDS011;52586;-43.152;172.732;2023-04-16T12:45:39;4.20;;;2.90;;
65825;SDS011;52586;-43.152;172.732;2023-04-16T12:48:10;6.35;;;2.90;;
65825;SDS011;52586;-43.152;172.732;2023-04-16T12:50:40;6.18;;;3.10;;
65825;SDS011;52586;-43.152;172.732;2023-04-16T12:53:11;3.75;;;2.80;;
65825;SDS011;52586;-43.152;172.732;2023-04-16T12:55:42;5.35;;;3.17;;
65825;SDS011;52586;-43.152;172.732;2023-04-16T12:58:12;5.97;;;3.05;;
65825;SDS011;52586;-43.152;172.732;2023-04-16T13:00:45;4.75;;;2.80;;
65825;SDS011;52586;-43.152;172.732;2023-04-16T13:03:15;5.90;;;3.08;;
65825;SDS011;52586;-43.152;172.732;2023-04-16T13:05:46;7.18;;;3.50;;
65825;SDS011;52586;-43.152;172.732;2023-04-16T13:08:17;6.15;;;3.28;;
65825;SDS011;52586;-43.152;172.732;2023-04-16T13:10:48;6.10;;;3.13;;
65825;SDS011;52586;-43.152;172.732;2023-04-16T13:13:18;5.55;;;3.13;;
65825;SDS011;52586;-43.152;172.732;2023-04-16T13:15:51;5.85;;;3.20;;
65825;SDS011;52586;-43.152;172.732;2023-04-16T13:18:22;5.80;;;3.15;;
65825;SDS011;52586;-43.152;172.732;2023-04-16T13:20:53;4.85;;;3.28;;
65825;SDS011;52586;-43.152;172.732;2023-04-16T13:23:23;6.38;;;3.50;;
65825;SDS011;52586;-43.152;172.732;2023-04-16T13:25:54;5.88;;;3.65;;
65825;SDS011;52586;-43.152;172.732;2023-04-16T13:28:25;6.05;;;3.40;;
65825;SDS011;52586;-43.152;172.732;2023-04-16T13:30:58;5.93;;;3.25;;
65825;SDS011;52586;-43.152;172.732;2023-04-16T13:33:29;6.28;;;3.40;;
65825;SDS011;52586;-43.152;172.732;2023-04-16T13:35:59;5.03;;;3.28;;
65825;SDS011;52586;-43.152;172.732;2023-04-16T13:38:30;5.82;;;3.25;;
65825;SDS011;52586;-43.152;172.732;2023-04-16T13:41:01;5.45;;;3.28;;
65825;SDS011;52586;-43.152;172.732;2023-04-16T13:43:31;4.78;;;2.88;;
65825;SDS011;52586;-43.152;172.732;2023-04-16T13:46:04;4.32;;;2.80;;
65825;SDS011;52586;-43.152;172.732;2023-04-16T13:48:35;5.57;;;3.25;;
65825;SDS011;52586;-43.152;172.732;2023-04-16T13:51:05;3.70;;;2.83;;
65825;SDS011;52586;-43.152;172.732;2023-04-16T13:53:36;6.72;;;3.42;;
65825;SDS011;52586;-43.152;172.732;2023-04-16T13:56:07;3.80;;;3.00;;
65825;SDS011;52586;-43.152;172.732;2023-04-16T13:58:38;5.13;;;3.45;;
65825;SDS011;52586;-43.152;172.732;2023-04-16T14:01:11;3.33;;;2.55;;
65825;SDS011;52586;-43.152;172.732;2023-04-16T14:03:42;5.40;;;3.00;;
65825;SDS011;52586;-43.152;172.732;2023-04-16T14:06:12;4.13;;;3.05;;
65825;SDS011;52586;-43.152;172.732;2023-04-16T14:08:43;4.43;;;2.67;;
65825;SDS011;52586;-43.152;172.732;2023-04-16T14:11:14;4.28;;;2.67;;
65825;SDS011;52586;-43.152;172.732;2023-04-16T14:13:44;5.00;;;2.60;;
65825;SDS011;52586;-43.152;172.732;2023-04-16T14:16:17;5.40;;;3.08;;
65825;SDS011;52586;-43.152;172.732;2023-04-16T14:18:48;6.03;;;3.13;;
65825;SDS011;52586;-43.152;172.732;2023-04-16T14:21:18;4.63;;;2.97;;
65825;SDS011;52586;-43.152;172.732;2023-04-16T14:23:49;5.28;;;3.05;;
65825;SDS011;52586;-43.152;172.732;2023-04-16T14:26:19;4.97;;;2.70;;
65825;SDS011;52586;-43.152;172.732;2023-04-16T14:28:50;5.80;;;3.08;;
65825;SDS011;52586;-43.152;172.732;2023-04-16T14:31:23;5.78;;;2.97;;
65825;SDS011;52586;-43.152;172.732;2023-04-16T14:33:53;5.68;;;2.90;;
65825;SDS011;52586;-43.152;172.732;2023-04-16T14:36:24;3.75;;;2.67;;
65825;SDS011;52586;-43.152;172.732;2023-04-16T14:38:55;4.75;;;2.90;;
65825;SDS011;52586;-43.152;172.732;2023-04-16T14:41:25;4.20;;;2.88;;